Data for 10/26/2008

Time Sea-Level Adjusted Pressure Absolute Pressure Temperature Relative Humidity Dew Point   
(mb) (inHg) (mb) (inHg) (C) (F) (%) (C) (F)
00:05 1025 30.27 854 25.22 6.8 44.3 21 -13.9 6.9
00:10 1025 30.27 854 25.22 7.3 45.2 20 -14.2 6.4
00:15 1025 30.27 854 25.22 7.4 45.4 20 -14.3 6.2
00:20 1025 30.27 854 25.22 7.4 45.4 20 -14.1 6.7
00:25 1025 30.27 854 25.22 7.5 45.5 20 -13.9 7
00:30 1025 30.27 854 25.22 7.2 45 22 -13.3 8
00:35 1025 30.27 854 25.22 6.8 44.2 22 -13.5 7.7
00:40 1025 30.27 854 25.22 6.6 43.9 22 -13.9 6.9
00:45 1025 30.27 855 25.25 6.8 44.3 21 -13.8 7.1
00:50 1025 30.27 855 25.25 6.9 44.5 21 -14.2 6.5
00:55 1025 30.27 855 25.25 7.2 45 22 -13.4 7.9
01:00 1026 30.3 855 25.25 6.7 44.1 22 -13.5 7.8
01:05 1026 30.3 855 25.25 6.6 43.9 22 -13.9 7
01:10 1026 30.3 855 25.25 6.9 44.4 21 -13.8 7.1
01:15 1026 30.3 855 25.25 6.9 44.4 20 -14.3 6.2
01:20 1026 30.3 855 25.25 7 44.6 21 -14.1 6.7
01:25 1026 30.3 855 25.25 6.7 44.1 23 -13.2 8.2
01:30 1026 30.3 855 25.25 6 42.9 24 -13.2 8.2
01:35 1026 30.3 855 25.25 5.8 42.4 24 -13.6 7.6
01:40 1026 30.3 855 25.25 5.8 42.4 24 -13.4 7.8
01:45 1026 30.3 855 25.25 5.6 42 24 -13.3 8
01:50 1026 30.3 855 25.25 5.6 42.1 24 -13.7 7.4
01:55 1026 30.3 856 25.28 5.7 42.3 24 -13.6 7.5
02:00 1026 30.3 856 25.28 5.8 42.5 24 -13.3 8
02:05 1027 30.33 856 25.28 5.7 42.3 24 -13.2 8.2
02:10 1027 30.33 856 25.28 5.4 41.7 25 -13.2 8.3
02:15 1027 30.33 856 25.28 5.4 41.7 25 -13.4 8
02:20 1027 30.33 856 25.28 5.7 42.2 24 -13.4 7.9
02:25 1027 30.33 856 25.28 5.7 42.2 24 -13.2 8.2
02:30 1027 30.33 856 25.28 5.8 42.4 25 -12.8 9
02:35 1027 30.33 856 25.28 5.5 42 25 -12.8 9
02:40 1027 30.33 857 25.31 5.3 41.6 26 -12.6 9.2
02:45 1028 30.36 857 25.31 5.2 41.4 27 -12.5 9.5
02:50 1028 30.36 857 25.31 5 41 27 -12.4 9.7
02:55 1028 30.36 857 25.31 4.8 40.6 28 -12.1 10.2
03:00 1028 30.36 857 25.31 4.6 40.2 29 -12.1 10.2
03:05 1028 30.36 857 25.31 4.3 39.7 29 -12.1 10.2
03:10 1028 30.36 857 25.31 4.1 39.5 30 -12.1 10.2
03:15 1028 30.36 857 25.31 4.1 39.4 30 -11.8 10.8
03:20 1028 30.36 857 25.31 3.6 38.5 32 -11.6 11.1
03:25 1028 30.36 857 25.31 2.7 36.8 35 -11.4 11.5
03:30 1028 30.36 858 25.34 2 35.7 35 -11.7 10.9
03:35 1028 30.36 858 25.34 2.3 36.2 34 -11.9 10.6
03:40 1028 30.36 858 25.34 2.5 36.5 34 -11.9 10.7
03:45 1029 30.39 858 25.34 2.2 35.9 35 -11.6 11
03:50 1029 30.39 858 25.34 2.2 36 35 -11.7 10.9
03:55 1029 30.39 858 25.34 2.3 36.1 35 -11.5 11.3
04:00 1029 30.39 858 25.34 2.2 36 37 -11.2 11.9
04:05 1029 30.39 858 25.34 2.5 36.5 36 -11.2 11.9
04:10 1029 30.39 858 25.34 2.4 36.4 38 -10.3 13.4
04:15 1029 30.39 858 25.34 2 35.7 40 -10.2 13.7
04:20 1029 30.39 858 25.34 1.8 35.3 41 -10 14
04:25 1029 30.39 859 25.37 2.1 35.9 39 -10.4 13.2
04:30 1030 30.42 859 25.37 2.6 36.7 39 -10 14.1
04:35 1030 30.42 859 25.37 2.7 36.9 39 -9.9 14.1
04:40 1030 30.42 859 25.37 2.5 36.5 40 -9.7 14.5
04:45 1030 30.42 859 25.37 2.2 36 40 -10.1 13.7
04:50 1030 30.42 859 25.37 2.5 36.5 40 -9.8 14.3
04:55 1030 30.42 859 25.37 2.4 36.3 40 -9.8 14.3
05:00 1030 30.42 859 25.37 1.5 34.7 47 -8.7 16.3
05:05 1030 30.42 859 25.37 0.1 32.1 49 -9.4 15.1
05:10 1030 30.42 860 25.4 0.6 33.1 52 -8.1 17.4
05:15 1030 30.42 860 25.4 0.2 32.4 55 -7.8 18
05:20 1031 30.45 860 25.4 -0.4 31.2 60 -7.3 18.9
05:25 1031 30.45 860 25.4 -0.7 30.7 58 -8.1 17.4
05:30 1031 30.45 860 25.4 -1 30.2 63 -7.2 19
05:35 1031 30.45 860 25.4 -1.1 30 64 -7 19.4
05:40 1031 30.45 860 25.4 -1.2 29.9 65 -6.9 19.6
05:45 1031 30.45 860 25.4 -1.2 29.8 66 -6.9 19.6
05:50 1031 30.45 860 25.4 -1.3 29.6 66 -6.8 19.7
05:55 1031 30.45 861 25.43 -1.5 29.4 67 -6.8 19.8
06:00 1031 30.45 861 25.43 -1.5 29.2 68 -6.7 20
06:05 1032 30.47 861 25.43 -1.8 28.8 69 -6.7 19.9
06:10 1032 30.47 861 25.43 -1.8 28.7 69 -6.8 19.7
06:15 1032 30.47 861 25.43 -1.8 28.7 68 -6.9 19.5
06:20 1032 30.47 861 25.43 -1.8 28.7 67 -7.1 19.3
06:25 1032 30.47 861 25.43 -1.8 28.7 67 -7.2 19
06:30 1032 30.47 861 25.43 -1.8 28.7 67 -7.2 19.1
06:35 1032 30.47 862 25.45 -2 28.4 67 -7.4 18.7
06:40 1032 30.47 862 25.45 -2.1 28.2 66 -7.6 18.2
06:45 1033 30.5 862 25.45 -2.1 28.2 65 -7.9 17.9
06:50 1033 30.5 862 25.45 -2.2 28 65 -7.9 17.7
06:55 1033 30.5 862 25.45 -2.3 27.9 65 -8.1 17.5
07:00 1033 30.5 862 25.45 -2.3 27.8 65 -8.1 17.3
07:05 1033 30.5 862 25.45 -2.5 27.6 65 -8.2 17.2
07:10 1033 30.5 862 25.45 -2.5 27.4 65 -8.3 17
07:15 1033 30.5 862 25.45 -2.6 27.3 65 -8.3 17
07:20 1033 30.5 862 25.45 -2.6 27.3 65 -8.3 17.1
07:25 1033 30.5 862 25.45 -2.7 27.1 65 -8.4 17
07:30 1033 30.5 863 25.48 -2.7 27.2 65 -8.3 17
07:35 1033 30.5 863 25.48 -2.7 27.1 65 -8.4 17
07:40 1033 30.5 863 25.48 -2.8 27 65 -8.5 16.8
07:45 1034 30.53 863 25.48 -2.7 27.2 63 -8.7 16.4
07:50 1034 30.53 863 25.48 -2.6 27.2 62 -8.9 16
07:55 1034 30.53 863 25.48 -2.6 27.2 63 -8.8 16.1
08:00 1034 30.53 863 25.48 -2.7 27.1 62 -9 15.7
08:05 1034 30.53 863 25.48 -2.8 27 62 -9 15.7
08:10 1034 30.53 863 25.48 -2.9 26.8 62 -9.2 15.5
08:15 1034 30.53 864 25.51 -2.9 26.8 62 -9.2 15.4
08:20 1034 30.53 864 25.51 -2.9 26.8 61 -9.4 15.1
08:25 1035 30.56 864 25.51 -2.7 27.1 60 -9.5 14.9
08:30 1035 30.56 864 25.51 -2.5 27.5 59 -9.5 15
08:35 1035 30.56 864 25.51 -2.4 27.6 58 -9.6 14.7
08:40 1035 30.56 864 25.51 -2.3 27.9 57 -9.7 14.5
08:45 1035 30.56 864 25.51 -2.2 28 57 -9.6 14.7
08:50 1035 30.56 864 25.51 -2.1 28.2 57 -9.5 14.8
08:55 1035 30.56 864 25.51 -2 28.4 56 -9.5 14.8
09:00 1035 30.56 865 25.54 -1.8 28.8 56 -9.5 14.9
09:05 1035 30.56 865 25.54 -1.6 29.1 53 -9.9 14.2
09:10 1035 30.56 865 25.54 -1.3 29.6 51 -10.2 13.6
09:15 1036 30.59 865 25.54 -1.2 29.8 51 -10.1 13.9
09:20 1036 30.59 865 25.54 -0.9 30.4 49 -10.2 13.6
09:25 1036 30.59 865 25.54 -0.9 30.3 50 -10.2 13.7
09:30 1036 30.59 865 25.54 -0.7 30.8 51 -9.7 14.5
09:35 1036 30.59 865 25.54 -0.5 31.1 51 -9.5 14.9
09:40 1036 30.59 865 25.54 -0.2 31.6 50 -9.5 14.8
09:45 1036 30.59 865 25.54 0.1 32.2 47 -9.9 14.2
09:50 1036 30.59 865 25.54 0.5 32.8 46 -9.7 14.5
09:55 1036 30.59 865 25.54 0.5 32.9 46 -9.8 14.3
10:00 1036 30.59 865 25.54 0.6 33 45 -10.1 13.8
10:05 1036 30.59 865 25.54 0.9 33.7 43 -10.4 13.3
10:10 1036 30.59 865 25.54 1 33.8 43 -10.4 13.3
10:15 1036 30.59 865 25.54 1.3 34.3 41 -10.5 13.2
10:20 1036 30.59 865 25.54 1.5 34.6 41 -10.4 13.3
10:25 1036 30.59 865 25.54 1.7 35 41 -10.1 13.8
10:30 1036 30.59 865 25.54 2 35.6 41 -10 13.9
10:35 1036 30.59 865 25.54 2 35.5 43 -9.4 15.1
10:40 1036 30.59 865 25.54 2.1 35.8 42 -9.5 14.9
10:45 1036 30.59 865 25.54 2.1 35.8 43 -9.2 15.4
10:50 1036 30.59 865 25.54 2.4 36.2 41 -9.6 14.7
10:55 1036 30.59 865 25.54 3.1 37.6 39 -9.4 15.1
11:00 1036 30.59 865 25.54 3.8 38.9 38 -9.4 15.1
11:05 1036 30.59 865 25.54 4.3 39.7 38 -8.9 16
11:10 1036 30.59 865 25.54 4.1 39.4 39 -8.8 16.2
11:15 1036 30.59 865 25.54 3.7 38.7 40 -8.8 16.1
11:20 1036 30.59 865 25.54 2.9 37.2 42 -8.8 16.2
11:25 1036 30.59 865 25.54 2.6 36.7 41 -9.3 15.2
11:30 1036 30.59 865 25.54 3.6 38.4 40 -8.7 16.4
11:35 1036 30.59 865 25.54 2.8 37 39 -9.7 14.5
11:40 1036 30.59 865 25.54 3.8 38.9 36 -10.1 13.8
11:45 1036 30.59 865 25.54 4.6 40.2 35 -9.7 14.5
11:50 1036 30.59 865 25.54 4.8 40.6 35 -9.4 15
11:55 1036 30.59 865 25.54 4.7 40.4 38 -8.6 16.5
12:00 1036 30.59 865 25.54 4.2 39.5 37 -9.4 15.1
12:05 1036 30.59 865 25.54 3.2 37.8 38 -9.7 14.5
12:10 1036 30.59 865 25.54 4.1 39.4 34 -10.4 13.3
12:15 1036 30.59 865 25.54 4.9 40.8 33 -10.2 13.7
12:20 1036 30.59 865 25.54 4.9 40.8 32 -10.3 13.5
12:25 1036 30.59 865 25.54 5.2 41.3 31 -10.6 12.9
12:30 1036 30.59 865 25.54 5.3 41.6 31 -10.3 13.4
12:35 1036 30.59 865 25.54 5.8 42.4 30 -10.3 13.4
12:40 1036 30.59 865 25.54 5.8 42.5 32 -9.8 14.3
12:45 1036 30.59 865 25.54 5.4 41.7 32 -10.2 13.6
12:50 1036 30.59 865 25.54 5.7 42.2 31 -10.1 13.8
12:55 1036 30.59 865 25.54 6 42.8 31 -10 14
13:00 1036 30.59 865 25.54 6.3 43.4 31 -9.5 15
13:05 1035 30.56 865 25.54 6.2 43.1 30 -10.2 13.6
13:10 1035 30.56 865 25.54 6.7 44.1 31 -9.4 15.2
13:15 1035 30.56 865 25.54 6.6 44 31 -9.5 14.9
13:20 1035 30.56 864 25.51 6.6 43.8 31 -9.5 14.9
13:25 1035 30.56 864 25.51 6.5 43.8 32 -8.8 16.1
13:30 1035 30.56 864 25.51 6.4 43.5 31 -9.3 15.2
13:35 1035 30.56 864 25.51 6.9 44.4 31 -9.1 15.6
13:40 1035 30.56 864 25.51 7.1 44.7 31 -8.9 16
13:45 1035 30.56 864 25.51 7.1 44.8 31 -9 15.8
13:50 1035 30.56 864 25.51 7.4 45.3 30 -8.9 16
13:55 1035 30.56 864 25.51 7.1 44.7 32 -8.7 16.3
14:00 1035 30.56 864 25.51 6.5 43.7 32 -9 15.9
14:05 1035 30.56 864 25.51 6.8 44.3 32 -8.8 16.2
14:10 1035 30.56 864 25.51 7.6 45.6 30 -9 15.7
14:15 1035 30.56 864 25.51 7.8 46.1 32 -7.8 17.9
14:20 1035 30.56 864 25.51 6.8 44.3 31 -9 15.9
14:25 1034 30.53 864 25.51 7.5 45.4 31 -8.5 16.7
14:30 1034 30.53 864 25.51 7.6 45.7 31 -8.5 16.7
14:35 1034 30.53 864 25.51 8.3 46.9 29 -8.9 16
14:40 1034 30.53 864 25.51 8.6 47.5 30 -8.1 17.5
14:45 1034 30.53 863 25.48 8.4 47.1 28 -9 15.9
14:50 1034 30.53 863 25.48 7.5 45.4 32 -8.1 17.3
14:55 1034 30.53 863 25.48 7.4 45.3 30 -9.1 15.6
15:00 1034 30.53 863 25.48 8.3 47 29 -8.5 16.7
15:05 1034 30.53 863 25.48 8.7 47.6 28 -8.7 16.3
15:10 1034 30.53 863 25.48 8.5 47.3 29 -8.6 16.5
15:15 1034 30.53 863 25.48 7.5 45.5 32 -8.2 17.2
15:20 1034 30.53 863 25.48 7.7 45.9 29 -9.3 15.3
15:25 1034 30.53 863 25.48 8.7 47.7 28 -8.7 16.4
15:30 1034 30.53 863 25.48 8.4 47.2 29 -8.6 16.6
15:35 1034 30.53 863 25.48 8.3 47 29 -8.6 16.5
15:40 1034 30.53 863 25.48 8.1 46.6 29 -8.9 16
15:45 1034 30.53 863 25.48 8.8 47.8 27 -9 15.7
15:50 1034 30.53 863 25.48 8.5 47.3 28 -9 15.9
15:55 1034 30.53 863 25.48 8.7 47.6 29 -8.6 16.5
16:00 1034 30.53 863 25.48 8.2 46.8 30 -8.3 17
16:05 1034 30.53 863 25.48 8.1 46.5 30 -8.6 16.5
16:10 1034 30.53 863 25.48 8.4 47.1 30 -8.4 16.9
16:15 1034 30.53 863 25.48 8.5 47.3 29 -8.4 16.9
16:20 1034 30.53 863 25.48 8.5 47.3 30 -8.2 17.3
16:25 1034 30.53 863 25.48 7.9 46.2 30 -8.6 16.5
16:30 1034 30.53 863 25.48 8 46.5 28 -9.2 15.4
16:35 1034 30.53 863 25.48 7.8 46.1 30 -8.6 16.5
16:40 1034 30.53 863 25.48 8.2 46.7 30 -8.6 16.6
16:45 1034 30.53 863 25.48 8.2 46.7 30 -8.4 16.8
16:50 1034 30.53 863 25.48 7.8 46 31 -8.4 16.8
16:55 1034 30.53 863 25.48 7.7 45.9 30 -8.7 16.3
17:00 1033 30.5 863 25.48 8.1 46.7 29 -8.6 16.4
17:05 1033 30.5 863 25.48 8.3 47 30 -8.3 17
17:10 1033 30.5 863 25.48 7.9 46.3 31 -8.4 16.9
17:15 1033 30.5 863 25.48 7.9 46.2 30 -8.7 16.3
17:20 1033 30.5 863 25.48 8.2 46.7 29 -8.8 16.1
17:25 1033 30.5 863 25.48 8.1 46.6 30 -8.5 16.7
17:30 1033 30.5 863 25.48 7.8 46.1 30 -8.8 16.1
17:35 1033 30.5 863 25.48 7.3 45.2 31 -8.6 16.5
17:40 1033 30.5 863 25.48 6.5 43.7 32 -8.9 16
17:45 1033 30.5 862 25.45 6.4 43.5 33 -8.8 16.2
17:50 1033 30.5 862 25.45 6.6 43.9 33 -8.6 16.5
17:55 1033 30.5 862 25.45 6.1 43 34 -8.7 16.3
18:00 1033 30.5 862 25.45 5.8 42.4 34 -8.8 16.1
18:05 1033 30.5 862 25.45 5.6 42.2 34 -8.8 16.1
18:10 1033 30.5 862 25.45 5.5 42 35 -8.7 16.4
18:15 1033 30.5 862 25.45 5.4 41.7 36 -8.4 17
18:20 1033 30.5 862 25.45 5.2 41.4 36 -8.6 16.6
18:25 1033 30.5 862 25.45 5.1 41.1 37 -8.4 16.9
18:30 1033 30.5 862 25.45 4.9 40.8 37 -8.6 16.6
18:35 1033 30.5 862 25.45 4.7 40.4 38 -8.5 16.6
18:40 1033 30.5 862 25.45 4.5 40.1 39 -8.4 16.8
18:45 1033 30.5 862 25.45 4.5 40 41 -7.6 18.3
18:50 1033 30.5 862 25.45 4.6 40.4 40 -7.9 17.8
18:55 1033 30.5 862 25.45 4.5 40.2 44 -6.8 19.8
19:00 1033 30.5 862 25.45 4 39.2 46 -6.6 20.1
19:05 1033 30.5 862 25.45 3.5 38.2 47 -6.7 20
19:10 1033 30.5 862 25.45 3.1 37.5 50 -6.4 20.5
19:15 1033 30.5 862 25.45 2.6 36.7 46 -7.9 17.7
19:20 1033 30.5 862 25.45 2.6 36.7 47 -7.6 18.3
19:25 1033 30.5 862 25.45 2.3 36.1 47 -8 17.7
19:30 1033 30.5 862 25.45 1.9 35.5 47 -8.2 17.2
19:35 1033 30.5 862 25.45 1.7 35 48 -8.2 17.2
19:40 1033 30.5 862 25.45 1.6 34.9 47 -8.4 16.8
19:45 1033 30.5 862 25.45 2.1 35.8 45 -8.6 16.5
19:50 1033 30.5 862 25.45 2.1 35.8 47 -8.2 17.3
19:55 1033 30.5 862 25.45 1.8 35.3 44 -9.2 15.5
20:00 1033 30.5 862 25.45 2.1 35.8 42 -9.7 14.6
20:05 1033 30.5 862 25.45 1.8 35.2 46 -8.8 16.2
20:10 1033 30.5 862 25.45 1.2 34.2 45 -9.3 15.2
20:15 1033 30.5 862 25.45 1.2 34.1 43 -10.2 13.7
20:20 1033 30.5 862 25.45 1.3 34.4 44 -9.7 14.6
20:25 1033 30.5 862 25.45 1.5 34.7 44 -9.5 14.9
20:30 1033 30.5 862 25.45 1.4 34.6 45 -9.2 15.4
20:35 1033 30.5 862 25.45 1.2 34.2 45 -9.5 14.9
20:40 1033 30.5 862 25.45 1.1 34 45 -9.6 14.8
20:45 1033 30.5 862 25.45 1.1 33.9 44 -9.7 14.5
20:50 1033 30.5 862 25.45 1.2 34.1 44 -9.7 14.5
20:55 1033 30.5 862 25.45 1.3 34.3 44 -9.7 14.6
21:00 1033 30.5 862 25.45 1.5 34.7 41 -10.5 13.1
21:05 1033 30.5 862 25.45 2 35.6 39 -10.6 12.9
21:10 1033 30.5 862 25.45 2 35.6 38 -10.9 12.3
21:15 1033 30.5 862 25.45 1.8 35.2 38 -11.2 11.8
21:20 1033 30.5 862 25.45 1.5 34.7 38 -11.5 11.3
21:25 1033 30.5 862 25.45 1 33.7 44 -10.1 13.8
21:30 1033 30.5 862 25.45 0.5 32.9 45 -10.3 13.5
21:35 1033 30.5 862 25.45 0.7 33.3 42 -10.9 12.4
21:40 1033 30.5 862 25.45 1.3 34.3 41 -10.6 13
21:45 1033 30.5 862 25.45 1.5 34.7 38 -11.2 11.8
21:50 1033 30.5 862 25.45 1.7 35 36 -11.8 10.8
21:55 1033 30.5 862 25.45 1.8 35.2 38 -11.2 11.8
22:00 1033 30.5 862 25.45 1.2 34.2 40 -11.1 12
22:05 1033 30.5 862 25.45 1.1 34 38 -11.7 10.9
22:10 1033 30.5 862 25.45 1.7 35.1 35 -12 10.3
22:15 1033 30.5 862 25.45 1.6 34.9 37 -11.5 11.3
22:20 1033 30.5 862 25.45 1.5 34.7 39 -11 12.1
22:25 1033 30.5 862 25.45 1.4 34.6 39 -11.2 11.8
22:30 1033 30.5 862 25.45 1.5 34.7 38 -11.3 11.7
22:35 1033 30.5 862 25.45 1.3 34.4 38 -11.3 11.6
22:40 1033 30.5 862 25.45 1.6 34.8 38 -11.4 11.5
22:45 1033 30.5 862 25.45 1.6 34.9 39 -11 12.2
22:50 1033 30.5 862 25.45 1.2 34.2 40 -10.9 12.3
22:55 1033 30.5 862 25.45 0.9 33.7 41 -10.8 12.5
23:00 1033 30.5 862 25.45 0.9 33.5 40 -11.1 11.9
23:05 1033 30.5 862 25.45 1 33.8 41 -10.9 12.4
23:10 1032 30.47 862 25.45 0.7 33.3 42 -10.7 12.7
23:15 1032 30.47 862 25.45 0.2 32.3 42 -11.3 11.7
23:20 1032 30.47 862 25.45 0.3 32.5 43 -10.8 12.5
23:25 1032 30.47 862 25.45 0.3 32.6 42 -11 12.1
23:30 1032 30.47 862 25.45 0.6 33 40 -11.5 11.2
23:35 1032 30.47 862 25.45 0.8 33.5 38 -12.1 10.2
23:40 1032 30.47 862 25.45 1 33.9 38 -11.9 10.7
23:45 1032 30.47 862 25.45 1 33.8 43 -10.3 13.5
23:50 1032 30.47 862 25.45 0.3 32.6 45 -10.2 13.6
23:55 1032 30.47 862 25.45 -0.2 31.7 45 -10.7 12.7
24:00 1032 30.47 862 25.45 0 32 44 -11 12.3